createdAt,value
2019-02-16T00:02:50.578Z,98120.61
2019-02-16T00:05:16.971Z,98120.36
2019-02-16T00:07:43.065Z,98119.56
2019-02-16T00:10:09.096Z,98122.74
2019-02-16T00:12:35.142Z,98116.64
2019-02-16T00:15:01.195Z,98117.14
2019-02-16T00:17:27.060Z,98117.77
2019-02-16T00:19:53.241Z,98118.57
2019-02-16T00:22:19.520Z,98116.22
2019-02-16T00:24:45.737Z,98111.88
2019-02-16T00:27:11.863Z,98114.34
2019-02-16T00:29:37.793Z,98114.23
2019-02-16T00:32:03.972Z,98109.22
2019-02-16T00:34:29.883Z,98114.43
2019-02-16T00:36:55.968Z,98111.16
2019-02-16T00:39:21.942Z,98111.61
2019-02-16T00:41:48.117Z,98110.70
2019-02-16T00:44:13.999Z,98111.96
2019-02-16T00:46:40.056Z,98112.75
2019-02-16T00:49:06.138Z,98113.96
2019-02-16T00:51:32.261Z,98111.92
2019-02-16T00:53:58.444Z,98110.66
2019-02-16T00:56:24.561Z,98106.36
2019-02-16T00:58:50.637Z,98102.97
2019-02-16T01:01:16.874Z,98113.76
2019-02-16T01:03:42.894Z,98103.21
2019-02-16T01:06:08.913Z,98097.94
2019-02-16T01:08:35.089Z,98101.45
2019-02-16T01:11:01.112Z,98099.33
2019-02-16T01:13:27.087Z,98094.97
2019-02-16T01:15:53.216Z,98099.38
2019-02-16T01:18:19.387Z,98093.99
2019-02-16T01:20:45.513Z,98085.12
2019-02-16T01:23:11.704Z,98087.30
2019-02-16T01:25:37.858Z,98088.22
2019-02-16T01:28:03.741Z,98086.03
2019-02-16T01:30:29.763Z,98092.52
2019-02-16T01:32:55.981Z,98086.72
2019-02-16T01:35:22.119Z,98089.92
2019-02-16T01:37:48.290Z,98084.47
2019-02-16T01:40:14.362Z,98076.78
2019-02-16T01:42:40.394Z,98079.08
2019-02-16T01:45:48.078Z,98070.28
2019-02-16T01:48:14.529Z,98070.13
2019-02-16T01:50:40.700Z,98064.94
2019-02-16T01:53:06.927Z,98064.23
2019-02-16T01:55:32.856Z,98059.73
2019-02-16T01:57:58.964Z,98057.28
2019-02-16T02:00:25.101Z,98060.96
2019-02-16T02:02:51.275Z,98060.44
2019-02-16T02:08:05.041Z,98054.61
2019-02-16T02:10:31.210Z,98047.33
2019-02-16T02:12:57.238Z,98049.72
2019-02-16T02:15:23.360Z,98037.27
2019-02-16T02:17:49.529Z,98042.05
2019-02-16T02:20:15.457Z,98038.75
2019-02-16T02:22:41.635Z,98039.16
2019-02-16T02:28:21.138Z,98036.77
2019-02-16T02:30:47.309Z,98032.30
2019-02-16T02:33:13.606Z,98029.11
2019-02-16T02:35:39.628Z,98033.27
2019-02-16T02:38:05.699Z,98022.80
2019-02-16T02:40:31.773Z,98022.42
2019-02-16T02:42:57.796Z,98018.64
2019-02-16T02:45:23.909Z,98019.55
2019-02-16T02:47:50.193Z,98026.91
2019-02-16T02:50:16.423Z,98021.94
2019-02-16T02:52:42.446Z,98018.64
2019-02-16T02:55:08.521Z,98020.73
2019-02-16T02:57:34.548Z,98011.39
2019-02-16T03:00:00.616Z,98018.37
2019-02-16T03:02:26.740Z,98013.67
2019-02-16T03:04:52.865Z,98008.08
2019-02-16T03:07:19.038Z,98003.70
2019-02-16T03:09:44.892Z,98006.59
2019-02-16T03:12:10.937Z,98010.98
2019-02-16T03:14:36.904Z,98003.64
2019-02-16T03:17:02.928Z,98005.13
2019-02-16T03:19:48.768Z,98000.25
2019-02-16T03:22:14.936Z,98002.03
2019-02-16T03:24:41.026Z,97999.05
2019-02-16T03:27:48.619Z,98002.64
2019-02-16T03:30:56.205Z,98006.02
2019-02-16T03:34:03.748Z,98010.59
2019-02-16T03:37:09.517Z,98015.58
2019-02-16T03:40:17.106Z,98022.04
2019-02-16T03:42:43.135Z,98015.75
2019-02-16T03:45:09.192Z,98016.73
2019-02-16T03:47:35.333Z,98020.53
2019-02-16T03:50:01.408Z,98018.33
2019-02-16T03:52:27.331Z,98017.63
2019-02-16T03:54:53.549Z,98011.56
2019-02-16T03:57:19.578Z,98022.00
2019-02-16T03:59:45.710Z,98019.36
2019-02-16T04:02:11.823Z,98017.47
2019-02-16T04:04:37.951Z,98020.75
2019-02-16T04:07:04.026Z,98016.01
2019-02-16T04:09:30.195Z,98017.84
2019-02-16T04:11:56.377Z,98015.66
2019-02-16T04:14:22.444Z,98015.14
2019-02-16T04:16:48.474Z,98015.44
2019-02-16T04:19:14.743Z,98017.33
2019-02-16T04:21:40.774Z,98020.69
2019-02-16T04:24:06.956Z,98013.92
2019-02-16T04:26:33.137Z,98010.31
2019-02-16T04:28:59.190Z,98019.39
2019-02-16T04:31:25.275Z,98012.16
2019-02-16T04:33:51.289Z,98011.81
2019-02-16T04:36:17.479Z,98009.48
2019-02-16T04:38:43.535Z,98013.65
2019-02-16T04:41:09.559Z,98014.55
2019-02-16T04:43:35.856Z,98007.39
2019-02-16T04:46:02.126Z,98006.80
2019-02-16T04:48:28.150Z,98007.16
2019-02-16T04:50:54.332Z,98000.59
2019-02-16T04:53:20.502Z,97998.61
2019-02-16T04:55:46.685Z,98003.37
2019-02-16T04:58:12.651Z,97998.80
2019-02-16T05:00:40.984Z,97997.48
2019-02-16T05:03:07.000Z,97996.19
2019-02-16T05:05:32.970Z,97989.92
2019-02-16T05:07:59.460Z,98000.96
2019-02-16T05:10:25.580Z,98001.42
2019-02-16T05:12:51.858Z,97999.23
2019-02-16T05:15:17.932Z,98000.27
2019-02-16T05:17:44.016Z,97997.88
2019-02-16T05:20:10.036Z,97999.38
2019-02-16T05:22:44.170Z,97992.88
2019-02-16T05:25:04.122Z,97997.11
2019-02-16T05:27:30.400Z,97999.00
2019-02-16T05:29:56.637Z,98003.67
2019-02-16T05:32:22.729Z,98006.66
2019-02-16T05:34:48.682Z,98002.57
2019-02-16T05:37:14.798Z,98000.44
2019-02-16T05:39:40.965Z,97993.77
2019-02-16T05:42:07.066Z,98004.86
2019-02-16T05:44:33.170Z,98005.61
2019-02-16T05:46:59.100Z,98010.38
2019-02-16T05:49:25.169Z,98010.67
2019-02-16T05:51:51.341Z,98013.45
2019-02-16T05:54:17.373Z,98017.02
2019-02-16T05:56:43.538Z,98014.44
2019-02-16T05:59:09.630Z,98015.48
2019-02-16T06:01:35.785Z,98015.13
2019-02-16T06:04:01.921Z,98015.76
2019-02-16T06:06:28.149Z,98015.67
2019-02-16T06:08:54.339Z,98009.38
2019-02-16T06:11:20.461Z,98016.48
2019-02-16T06:13:46.525Z,98012.34
2019-02-16T06:16:12.652Z,98019.15
2019-02-16T06:18:38.778Z,98015.33
2019-02-16T06:21:04.846Z,98019.45
2019-02-16T06:23:30.824Z,98013.40
2019-02-16T06:25:57.151Z,98014.96
2019-02-16T06:28:23.164Z,98013.23
2019-02-16T06:30:49.345Z,98009.67
2019-02-16T06:33:15.629Z,98012.16
2019-02-16T06:38:19.288Z,98018.17
2019-02-16T06:40:45.270Z,98014.91
2019-02-16T06:43:11.440Z,98014.44
2019-02-16T06:45:37.665Z,98018.61
2019-02-16T06:48:03.793Z,98023.22
2019-02-16T06:50:36.724Z,98030.19
2019-02-16T06:52:57.984Z,98033.42
2019-02-16T06:58:11.854Z,98035.83
2019-02-16T07:00:37.831Z,98037.42
2019-02-16T07:03:03.902Z,98035.07
2019-02-16T07:05:30.033Z,98043.31
2019-02-16T07:07:56.047Z,98049.49
2019-02-16T07:10:22.167Z,98041.84
2019-02-16T07:12:48.190Z,98037.11
2019-02-16T07:15:14.269Z,98045.66
2019-02-16T07:18:00.154Z,98047.86
2019-02-16T07:20:26.191Z,98046.74
2019-02-16T07:22:52.354Z,98050.37
2019-02-16T07:25:18.595Z,98048.80
2019-02-16T07:27:44.823Z,98052.71
2019-02-16T07:30:11.045Z,98057.37
2019-02-16T07:32:37.071Z,98060.11
2019-02-16T07:35:22.987Z,98052.55
2019-02-16T07:37:49.057Z,98052.55
2019-02-16T07:40:15.163Z,98052.05
2019-02-16T07:43:01.209Z,98050.75
2019-02-16T07:45:47.191Z,98058.37
2019-02-16T07:48:32.965Z,98057.68
2019-02-16T07:51:18.814Z,98066.25
2019-02-16T07:54:04.615Z,98076.25
2019-02-16T08:04:45.728Z,98066.02
2019-02-16T08:12:52.855Z,98060.17
2019-02-16T08:18:16.439Z,98062.27
2019-02-16T08:21:02.223Z,98059.16
2019-02-16T08:23:48.127Z,98055.55
2019-02-16T08:26:34.062Z,98055.44
2019-02-16T08:29:19.842Z,98054.61
2019-02-16T08:32:05.775Z,98055.38
2019-02-16T08:34:51.576Z,98050.94
2019-02-16T08:37:37.564Z,98052.89
2019-02-16T08:40:45.161Z,98051.20
2019-02-16T08:43:31.120Z,98050.98
2019-02-16T08:46:17.050Z,98045.21
2019-02-16T08:51:50.488Z,98045.28
2019-02-16T08:54:36.401Z,98045.76
2019-02-16T08:57:22.381Z,98041.38
2019-02-16T09:00:08.483Z,98041.30
2019-02-16T09:02:54.579Z,98037.18
2019-02-16T09:08:28.097Z,98032.97
2019-02-16T09:11:14.094Z,98037.37
2019-02-16T09:14:00.078Z,98030.31
2019-02-16T09:19:33.443Z,98029.84
2019-02-16T09:22:19.487Z,98025.83
2019-02-16T09:27:42.866Z,98016.94
2019-02-16T09:30:50.475Z,98017.96
2019-02-16T09:33:36.357Z,98012.84
2019-02-16T09:36:22.241Z,98013.53
2019-02-16T09:39:08.204Z,98015.58
2019-02-16T09:47:15.542Z,98016.90
2019-02-16T09:50:01.554Z,98014.42
2019-02-16T09:52:47.438Z,98013.94
2019-02-16T09:55:33.437Z,98015.39
2019-02-16T09:58:19.410Z,98018.28
2019-02-16T10:01:05.417Z,98013.48
2019-02-16T10:06:39.340Z,98016.78
2019-02-16T10:12:13.010Z,98018.44
2019-02-16T10:14:59.157Z,98018.50
2019-02-16T10:17:45.141Z,98022.84
2019-02-16T10:20:31.147Z,98015.70
2019-02-16T10:26:04.560Z,98015.62
2019-02-16T10:28:50.538Z,98015.62
2019-02-16T10:31:36.596Z,98009.27
2019-02-16T10:34:22.685Z,98010.12
2019-02-16T10:37:08.677Z,98013.23
2019-02-16T10:42:42.049Z,98010.22
2019-02-16T10:45:48.054Z,98008.35
2019-02-16T10:48:34.042Z,98008.35
2019-02-16T10:51:20.036Z,97996.53
2019-02-16T10:54:06.029Z,98000.92
2019-02-16T10:56:52.483Z,98000.92
2019-02-16T10:59:58.357Z,97991.27
2019-02-16T11:02:44.221Z,97991.27
2019-02-16T11:05:30.011Z,97995.16
2019-02-16T11:13:43.584Z,97982.86
2019-02-16T11:16:49.439Z,97982.86
2019-02-16T11:19:35.376Z,97977.47
2019-02-16T11:22:34.929Z,97975.89
2019-02-16T11:28:27.455Z,97975.59
2019-02-16T11:31:26.857Z,97970.90
2019-02-16T11:34:12.850Z,97970.90
2019-02-16T11:39:46.337Z,97961.49
2019-02-16T11:42:32.305Z,97961.51
2019-02-16T11:45:18.350Z,97954.62
2019-02-16T11:48:04.295Z,97959.59
2019-02-16T11:51:10.044Z,97953.25
2019-02-16T11:54:15.896Z,97945.02
2019-02-16T11:59:49.495Z,97939.78
2019-02-16T12:02:39.621Z,97937.94
2019-02-16T12:05:44.593Z,97934.19
2019-02-16T12:11:17.661Z,97930.95
2019-02-16T12:14:23.249Z,97925.63
2019-02-16T12:17:28.890Z,97934.66
2019-02-16T12:20:12.611Z,97928.20
2019-02-16T12:23:12.036Z,97926.14
2019-02-16T12:26:11.107Z,97926.84
2019-02-16T12:32:03.697Z,97924.16
2019-02-16T12:35:09.305Z,97911.04
2019-02-16T12:45:36.876Z,97905.37
2019-02-16T12:50:59.715Z,97904.80
2019-02-16T12:54:05.324Z,97884.53
2019-02-16T12:56:51.056Z,97884.53
2019-02-16T12:59:36.773Z,97893.41
2019-02-16T13:02:24.613Z,97900.50
2019-02-16T13:05:10.099Z,97890.09
2019-02-16T13:18:11.036Z,97897.80
2019-02-16T13:28:55.559Z,97891.86
2019-02-16T13:31:41.254Z,97893.62
2019-02-16T13:34:26.999Z,97893.80
2019-02-16T13:37:12.720Z,97892.93
2019-02-16T13:39:58.471Z,97890.85
2019-02-16T13:42:44.188Z,97890.02
2019-02-16T13:45:29.904Z,97888.38
2019-02-16T13:48:15.622Z,97880.28
2019-02-16T13:58:47.225Z,97881.56
2019-02-16T14:04:40.166Z,97873.71
2019-02-16T14:07:25.912Z,97868.57
2019-02-16T14:12:49.500Z,97859.77
2019-02-16T14:17:49.354Z,97862.74
2019-02-16T14:20:15.223Z,97861.19
2019-02-16T14:22:41.064Z,97850.77
2019-02-16T14:27:52.513Z,97842.88
2019-02-16T14:30:18.361Z,97846.76
2019-02-16T14:32:44.189Z,97857.06
2019-02-16T14:35:10.012Z,97850.14
2019-02-16T14:37:55.740Z,97854.60
2019-02-16T14:42:55.453Z,97859.76
2019-02-16T14:45:21.289Z,97866.05
2019-02-16T14:47:47.145Z,97859.09
2019-02-16T14:50:12.973Z,97860.09
2019-02-16T14:52:38.834Z,97860.80
2019-02-16T14:57:55.321Z,97851.02
2019-02-16T15:00:21.155Z,97842.63
2019-02-16T15:02:46.989Z,97838.08
2019-02-16T15:05:12.819Z,97832.84
2019-02-16T15:07:38.646Z,97834.29
2019-02-16T15:10:24.333Z,97837.84
2019-02-16T15:12:50.174Z,97837.88
2019-02-16T15:15:16.003Z,97835.94
2019-02-16T15:17:41.896Z,97831.88
2019-02-16T15:20:49.376Z,97839.48
2019-02-16T15:23:15.224Z,97837.81
2019-02-16T15:25:41.060Z,97841.42
2019-02-16T15:28:06.900Z,97836.95
2019-02-16T15:30:32.727Z,97834.85
2019-02-16T15:32:58.567Z,97835.08
2019-02-16T15:35:24.403Z,97829.14
2019-02-16T15:37:50.220Z,97830.63
2019-02-16T15:40:16.197Z,97826.02
2019-02-16T15:42:42.041Z,97833.44
2019-02-16T15:48:02.284Z,97834.88
2019-02-16T15:50:28.146Z,97834.36
2019-02-16T15:53:07.756Z,97826.64
2019-02-16T15:55:33.595Z,97827.65
2019-02-16T15:57:59.456Z,97818.83
2019-02-16T16:03:03.331Z,97814.91
2019-02-16T16:05:29.224Z,97813.70
2019-02-16T16:08:14.885Z,97814.20
2019-02-16T16:16:08.513Z,97809.30
2019-02-16T16:18:54.220Z,97813.97
2019-02-16T16:29:28.077Z,97807.44
2019-02-16T16:32:13.997Z,97810.11
2019-02-16T16:34:59.706Z,97797.77
2019-02-16T16:40:39.382Z,97811.16
2019-02-16T16:43:25.099Z,97810.98
2019-02-16T16:51:51.905Z,97802.20
2019-02-16T16:54:37.632Z,97803.02
2019-02-16T17:02:47.941Z,97796.30
2019-02-16T17:05:34.024Z,97813.70
2019-02-16T17:08:39.753Z,97817.41
2019-02-16T17:11:25.864Z,97817.41
2019-02-16T17:14:11.710Z,97822.16
2019-02-16T17:17:17.340Z,97826.35
2019-02-16T17:20:24.839Z,97830.55
2019-02-16T17:23:10.557Z,97830.55
2019-02-16T17:25:56.430Z,97835.17
2019-02-16T17:28:42.315Z,97834.34
2019-02-16T17:34:35.455Z,97846.36
2019-02-16T17:37:21.189Z,97853.91
2019-02-16T17:40:26.951Z,97851.61
2019-02-16T17:43:32.562Z,97855.46
2019-02-16T17:46:18.635Z,97855.46
2019-02-16T17:49:04.518Z,97851.43
2019-02-16T17:52:10.213Z,97859.11
2019-02-16T17:54:56.045Z,97859.11
2019-02-16T17:57:41.843Z,97858.30
2019-02-16T18:00:49.301Z,97851.98
2019-02-16T18:03:54.908Z,97858.09
2019-02-16T18:07:00.538Z,97857.23
2019-02-16T18:12:40.196Z,97862.98
2019-02-16T18:15:47.656Z,97860.11
2019-02-16T18:18:33.414Z,97844.36
2019-02-16T18:21:19.153Z,97845.22
2019-02-16T18:26:56.521Z,97844.84
2019-02-16T18:29:39.949Z,97849.93
2019-02-16T18:32:31.289Z,97840.70
2019-02-16T18:35:13.546Z,97843.61
2019-02-16T18:43:07.627Z,97838.86
2019-02-16T18:45:53.703Z,97839.92
2019-02-16T18:51:26.998Z,97834.27
2019-02-16T18:54:12.777Z,97838.77
2019-02-16T18:59:32.138Z,97836.83
2019-02-16T19:07:33.532Z,97846.62
2019-02-16T19:10:19.232Z,97842.83
2019-02-16T19:13:04.952Z,97846.62
2019-02-16T19:15:50.646Z,97842.70
2019-02-16T19:18:56.357Z,97845.69
2019-02-16T19:27:23.653Z,97842.33
2019-02-16T19:30:09.382Z,97842.34
2019-02-16T19:32:55.223Z,97842.90
2019-02-16T19:35:40.948Z,97847.20
2019-02-16T19:38:27.017Z,97849.55
2019-02-16T19:41:12.962Z,97848.41
2019-02-16T19:46:36.353Z,97845.92
2019-02-16T19:57:07.429Z,97841.69
2019-02-16T19:59:53.240Z,97838.09
2019-02-16T20:02:38.964Z,97843.22
2019-02-16T20:05:46.475Z,97840.75
2019-02-16T20:08:32.336Z,97837.17
2019-02-16T20:13:56.029Z,97841.35
2019-02-16T20:19:18.983Z,97836.20
2019-02-16T20:24:42.618Z,97829.19
2019-02-16T20:27:36.967Z,97827.27
2019-02-16T20:30:16.204Z,97833.31
2019-02-16T20:33:02.183Z,97832.57
2019-02-16T20:35:48.005Z,97835.13
2019-02-16T20:38:33.828Z,97830.00
2019-02-16T20:41:19.666Z,97832.48
2019-02-16T20:44:05.403Z,97825.87
2019-02-16T20:46:51.120Z,97824.89
2019-02-16T20:52:25.043Z,97822.67
2019-02-16T20:55:10.965Z,97833.97
2019-02-16T20:57:56.767Z,97830.88
2019-02-16T21:00:42.490Z,97828.46
2019-02-16T21:06:06.376Z,97828.42
2019-02-16T21:08:52.142Z,97829.02
2019-02-16T21:14:25.413Z,97824.98
2019-02-16T21:17:11.291Z,97833.65
2019-02-16T21:19:57.032Z,97828.55
2019-02-16T21:22:42.932Z,97826.58
2019-02-16T21:25:28.638Z,97826.11
2019-02-16T21:28:14.394Z,97821.25
2019-02-16T21:31:00.141Z,97815.65
2019-02-16T21:33:45.888Z,97827.61
2019-02-16T21:36:31.577Z,97820.43
2019-02-16T21:39:17.376Z,97813.67
2019-02-16T21:42:03.322Z,97815.73
2019-02-16T21:47:26.670Z,97814.39
2019-02-16T21:50:12.390Z,97811.34
2019-02-16T21:55:45.741Z,97808.23
2019-02-16T21:58:31.504Z,97803.77
2019-02-16T22:01:17.371Z,97804.14
2019-02-16T22:04:03.247Z,97795.06
2019-02-16T22:06:49.189Z,97793.45
2019-02-16T22:12:12.062Z,97802.80
2019-02-16T22:14:38.076Z,97800.00
2019-02-16T22:17:03.960Z,97797.78
2019-02-16T22:19:29.995Z,97796.15
2019-02-16T22:21:55.894Z,97797.00
2019-02-16T22:24:21.746Z,97797.66
2019-02-16T22:26:47.599Z,97788.41
2019-02-16T22:29:33.299Z,97795.25
2019-02-16T22:31:59.131Z,97795.25
2019-02-16T22:34:25.163Z,97799.47
2019-02-16T22:36:51.024Z,97795.16
2019-02-16T22:39:16.940Z,97799.34
2019-02-16T22:41:42.888Z,97796.53
2019-02-16T22:44:08.700Z,97785.63
2019-02-16T22:46:34.530Z,97791.62
2019-02-16T22:49:00.453Z,97793.04
2019-02-16T22:51:26.436Z,97791.23
2019-02-16T22:53:52.342Z,97788.80
2019-02-16T22:56:18.544Z,97785.28
2019-02-16T22:58:44.354Z,97749.89
2019-02-16T23:03:47.509Z,97791.27
2019-02-16T23:06:13.415Z,97793.20
2019-02-16T23:08:39.384Z,97793.63
2019-02-16T23:11:05.316Z,97795.39
2019-02-16T23:13:31.256Z,97789.46
2019-02-16T23:15:57.160Z,97796.45
2019-02-16T23:18:23.004Z,97795.30
2019-02-16T23:20:49.032Z,97793.95
2019-02-16T23:23:14.966Z,97794.07
2019-02-16T23:25:40.815Z,97792.19
2019-02-16T23:28:06.746Z,97789.75
2019-02-16T23:31:14.201Z,97791.27
2019-02-16T23:33:40.035Z,97786.30
2019-02-16T23:36:06.259Z,97787.39
2019-02-16T23:38:32.106Z,97784.78
2019-02-16T23:40:58.307Z,97783.70
2019-02-16T23:43:24.137Z,97782.36
2019-02-16T23:45:49.979Z,97783.08
2019-02-16T23:48:15.814Z,97787.95
2019-02-16T23:50:41.757Z,97775.03
2019-02-16T23:53:07.616Z,97788.36
2019-02-16T23:55:33.561Z,97774.52
2019-02-16T23:57:59.388Z,97776.40
